Rochester International Airport
KRST : rendu visible

Aérodrome :











RETROUVEZ-NOUS SUR...

 
LOGIN :

S'inscrire | Disclaimer

   EN    FR    IT 

 









Légende :    VFR   VFR Marginal   IFR   IFR Intensif   IFR Très Intensif
Visi : 
Plafond : 
>= 8 km
>= 3000ft
5 à 8 km
1000 à 3000 ft
1500m à 5 km
500 à 1000 ft
800 à 1500m
200 à 500 ft
< 800m
< 200 ft
Symboles :   Orages  Brouillard  Fortes neiges  Fortes précipitations  Vent > 20 kt






- Altitude de l'aérodrome : 1317 ft
- Code IATA : RST


KRST - Rochester International

DERNIER METAR :
  • 192154Z 30010KT 10SM CLR M13/M19 A3060 RMK AO2 SLP400 T11331194

METARs EXPIRÉS :
  • 192054Z 31010KT 10SM CLR M13/M19 A3061 RMK AO2 SLP402 T11331194 56009
  • 191954Z 29010KT 10SM CLR M13/M19 A3062 RMK AO2 SLP404 T11331194

TAF KRST
Valide du 19 à 18h jusqu'au 20 à 18h UTC


191720Z 1918/2018 30009KT P6SM BKN090
FM200200 29006KT P6SM SKC



MET'MAP, la Météo Aéronautique d'un coup d'oeil ! - Copyright ORBIFLY Décembre 2007 - Disclaimer

ORBIFLY MET'MAP TEAM :

Programmation & Développement : Alexandra Zaïnal
Sur une idée originale de : Baudouin d'Aumeries
Assistance à la programmation : Marc-Olivier Méhu
Soutien technique & logistique : Manuel Goepfert

Contact : metmap@orbifly.com




SOURCES & CREDITS :

   NOAA       Earth
Advisory